Time,TemperatureF,DewpointF,PressureIn,WindDirection,WindDirectionDegrees,WindSpeedMPH,WindSpeedGustMPH,Humidity,HourlyPrecipIn,Conditions,Clouds,dailyrainin,SoftwareType,DateUTC
2013-02-12 00:00:00,48.2,36.2,30.01,East,87,0.0,6.9,63,0.00,,---,0.00,VWS V14.00,2013-02-12 06:00:00,
2013-02-12 00:10:00,48.2,36.2,30.01,SE,131,0.0,6.3,63,0.00,,---,0.00,VWS V14.00,2013-02-12 06:10:00,
2013-02-12 00:20:00,48.0,36.4,29.98,ESE,108,0.0,7.4,64,0.00,,---,0.00,VWS V14.00,2013-02-12 06:20:00,
2013-02-12 00:30:00,47.8,36.7,29.98,ENE,71,0.0,6.3,65,0.00,,---,0.00,VWS V14.00,2013-02-12 06:30:00,
2013-02-12 00:40:00,48.0,36.8,29.98,ENE,68,0.0,7.8,65,0.00,,---,0.00,VWS V14.00,2013-02-12 06:40:00,
2013-02-12 00:50:00,48.0,37.2,29.95,ESE,106,0.0,9.2,66,0.00,,---,0.00,VWS V14.00,2013-02-12 06:50:00,
2013-02-12 01:00:00,48.4,37.6,29.95,ESE,105,2.7,6.9,66,0.00,,---,0.00,VWS V14.00,2013-02-12 07:00:00,
2013-02-12 01:10:00,48.7,38.3,29.98,East,80,0.0,4.0,67,0.00,,---,0.00,VWS V14.00,2013-02-12 07:10:00,
2013-02-12 01:20:00,48.6,38.1,29.95,East,98,5.4,6.9,67,0.00,,---,0.00,VWS V14.00,2013-02-12 07:20:00,
2013-02-12 01:30:00,48.4,37.9,29.95,East,82,0.0,6.9,67,0.00,,---,0.00,VWS V14.00,2013-02-12 07:30:00,
2013-02-12 01:40:00,48.7,38.7,29.95,South,187,0.0,8.7,68,0.00,,---,0.00,VWS V14.00,2013-02-12 07:40:00,
2013-02-12 01:49:00,48.7,38.7,29.98,SSE,159,5.8,7.4,68,0.00,,---,0.00,VWS V14.00,2013-02-12 07:49:00,
2013-02-12 01:59:00,48.7,39.0,29.98,SE,133,0.0,6.9,69,0.00,,---,0.00,VWS V14.00,2013-02-12 07:59:00,
2013-02-12 02:09:00,48.7,39.0,29.98,ESE,121,0.0,7.4,69,0.00,,---,0.00,VWS V14.00,2013-02-12 08:09:00,
2013-02-12 02:19:00,48.7,39.0,29.98,East,95,0.0,4.9,69,0.00,,---,0.00,VWS V14.00,2013-02-12 08:19:00,
2013-02-12 02:29:00,48.7,39.0,29.98,ENE,71,0.0,3.1,69,0.00,,---,0.00,VWS V14.00,2013-02-12 08:29:00,
2013-02-12 02:39:00,48.9,39.6,30.01,East,95,0.0,0.0,70,0.00,,---,0.00,VWS V14.00,2013-02-12 08:39:00,
2013-02-12 02:49:00,48.9,39.6,29.98,ENE,73,0.0,4.9,70,0.00,,---,0.00,VWS V14.00,2013-02-12 08:49:00,
2013-02-12 02:59:00,48.7,39.8,29.98,ENE,72,0.0,4.9,71,0.00,,---,0.00,VWS V14.00,2013-02-12 08:59:00,
2013-02-12 03:09:00,48.6,39.6,29.95,ENE,74,0.0,4.9,71,0.00,,---,0.00,VWS V14.00,2013-02-12 09:09:00,
2013-02-12 03:19:00,48.6,40.0,29.95,ENE,77,0.0,4.0,72,0.00,,---,0.00,VWS V14.00,2013-02-12 09:19:00,
2013-02-12 03:29:00,48.4,39.8,29.95,NE,54,0.0,4.5,72,0.00,,---,0.00,VWS V14.00,2013-02-12 09:29:00,
2013-02-12 03:39:00,48.2,40.0,29.95,East,83,0.0,4.9,73,0.00,,---,0.00,VWS V14.00,2013-02-12 09:39:00,
2013-02-12 03:49:00,48.0,39.8,29.92,ENE,76,0.0,3.6,73,0.00,,---,0.00,VWS V14.00,2013-02-12 09:49:00,
2013-02-12 03:59:00,47.8,40.0,29.92,North,5,0.0,4.5,74,0.00,,---,0.00,VWS V14.00,2013-02-12 09:59:00,
2013-02-12 04:09:00,47.7,40.1,29.92,ENE,78,2.7,7.8,75,0.00,,---,0.00,VWS V14.00,2013-02-12 10:09:00,
2013-02-12 04:19:00,47.7,40.1,29.92,ESE,116,0.0,4.9,75,0.00,,---,0.00,VWS V14.00,2013-02-12 10:19:00,
2013-02-12 04:29:00,47.7,40.5,29.92,ENE,75,0.0,0.0,76,0.00,,---,0.00,VWS V14.00,2013-02-12 10:29:00,
2013-02-12 04:39:00,47.7,40.8,29.92,East,91,0.0,6.9,77,0.00,,---,0.00,VWS V14.00,2013-02-12 10:39:00,
2013-02-12 04:49:00,47.5,41.0,29.89,ENE,75,4.5,7.8,78,0.00,,---,0.00,VWS V14.00,2013-02-12 10:49:00,
2013-02-12 04:59:00,47.3,41.1,29.89,ENE,74,0.0,6.3,79,0.04,,---,0.04,VWS V14.00,2013-02-12 10:59:00,
2013-02-12 05:10:00,47.1,41.0,29.86,ENE,74,0.0,6.3,79,0.08,,---,0.08,VWS V14.00,2013-02-12 11:10:00,
2013-02-12 05:19:00,47.1,41.3,29.89,ENE,73,0.0,4.5,80,0.08,,---,0.08,VWS V14.00,2013-02-12 11:19:00,
2013-02-12 05:29:00,47.1,41.3,29.89,East,92,0.0,2.7,80,0.08,,---,0.08,VWS V14.00,2013-02-12 11:29:00,
2013-02-12 05:39:00,47.1,41.6,29.89,East,92,0.0,0.0,81,0.08,,---,0.08,VWS V14.00,2013-02-12 11:39:00,
2013-02-12 05:49:00,47.1,41.6,29.89,East,92,0.0,0.0,81,0.12,,---,0.12,VWS V14.00,2013-02-12 11:49:00,
2013-02-12 05:59:00,47.1,41.9,29.89,East,92,0.0,0.0,82,0.20,,---,0.20,VWS V14.00,2013-02-12 11:59:00,
2013-02-12 06:09:00,46.9,41.7,29.89,East,99,0.0,5.4,82,0.20,,---,0.24,VWS V14.00,2013-02-12 12:09:00,
2013-02-12 06:19:00,46.8,41.9,29.89,East,95,0.0,4.5,83,0.16,,---,0.24,VWS V14.00,2013-02-12 12:19:00,
2013-02-12 06:29:00,46.8,41.9,29.89,East,94,0.0,0.0,83,0.16,,---,0.24,VWS V14.00,2013-02-12 12:29:00,
2013-02-12 06:39:00,46.9,42.4,29.89,East,99,0.0,4.0,84,0.16,,---,0.24,VWS V14.00,2013-02-12 12:39:00,
2013-02-12 06:49:00,46.8,42.2,29.89,ESE,102,4.0,4.5,84,0.16,,---,0.24,VWS V14.00,2013-02-12 12:49:00,
2013-02-12 06:59:00,46.6,42.0,29.89,East,97,0.0,4.5,84,0.12,,---,0.24,VWS V14.00,2013-02-12 12:59:00,
2013-02-12 07:09:00,46.6,42.0,29.86,ENE,77,0.0,4.9,84,0.04,,---,0.24,VWS V14.00,2013-02-12 13:09:00,
2013-02-12 07:19:00,46.6,42.3,29.86,ESE,109,0.0,5.4,85,0.00,,---,0.24,VWS V14.00,2013-02-12 13:19:00,
2013-02-12 07:29:00,46.6,42.3,29.86,East,98,3.6,4.0,85,0.00,,---,0.24,VWS V14.00,2013-02-12 13:29:00,
2013-02-12 07:39:00,46.6,42.6,29.86,ENE,75,0.0,4.9,86,0.00,,---,0.24,VWS V14.00,2013-02-12 13:39:00,
2013-02-12 07:49:00,46.8,42.8,29.86,ENE,65,0.0,6.3,86,0.00,,---,0.24,VWS V14.00,2013-02-12 13:49:00,
2013-02-12 07:59:00,46.8,42.8,29.86,NE,56,0.0,6.3,86,0.00,,---,0.24,VWS V14.00,2013-02-12 13:59:00,
2013-02-12 08:09:00,46.8,42.8,29.86,ENE,70,0.0,4.5,86,0.04,,---,0.28,VWS V14.00,2013-02-12 14:09:00,
2013-02-12 08:19:00,46.8,43.1,29.86,East,87,0.0,6.3,87,0.04,,---,0.28,VWS V14.00,2013-02-12 14:19:00,
2013-02-12 08:29:00,46.9,43.3,29.86,NW,322,3.6,4.9,87,0.04,,---,0.28,VWS V14.00,2013-02-12 14:29:00,
2013-02-12 08:39:00,47.1,43.5,29.92,NNW,342,0.0,5.8,87,0.04,,---,0.28,VWS V14.00,2013-02-12 14:39:00,
2013-02-12 08:49:00,46.9,43.3,29.92,NW,317,0.0,4.9,87,0.08,,---,0.31,VWS V14.00,2013-02-12 14:49:00,
2013-02-12 08:59:00,46.9,43.6,29.92,NW,319,0.0,0.0,88,0.08,,---,0.31,VWS V14.00,2013-02-12 14:59:00,
2013-02-12 09:09:00,46.9,43.6,29.92,NW,323,0.0,0.0,88,0.08,,---,0.31,VWS V14.00,2013-02-12 15:09:00,
2013-02-12 09:19:00,46.9,43.6,29.92,NW,319,0.0,4.9,88,0.08,,---,0.35,VWS V14.00,2013-02-12 15:19:00,
2013-02-12 09:29:00,47.1,44.0,29.92,NW,323,0.0,0.0,89,0.08,,---,0.35,VWS V14.00,2013-02-12 15:29:00,
2013-02-12 09:39:00,47.3,44.2,29.92,NW,321,0.0,0.0,89,0.08,,---,0.35,VWS V14.00,2013-02-12 15:39:00,
2013-02-12 09:49:00,47.3,44.2,29.92,NW,322,0.0,0.0,89,0.08,,---,0.35,VWS V14.00,2013-02-12 15:49:00,
2013-02-12 09:59:00,47.3,44.2,29.92,NW,318,0.0,0.0,89,0.04,,---,0.35,VWS V14.00,2013-02-12 15:59:00,
2013-02-12 10:09:00,47.5,44.7,29.92,NW,322,0.0,0.0,90,0.04,,---,0.35,VWS V14.00,2013-02-12 16:09:00,
2013-02-12 10:19:00,47.8,45.0,29.92,NW,320,0.0,0.0,90,0.04,,---,0.35,VWS V14.00,2013-02-12 16:19:00,
2013-02-12 10:29:00,48.2,45.7,29.92,NW,323,0.0,0.0,91,0.00,,---,0.35,VWS V14.00,2013-02-12 16:29:00,
2013-02-12 10:39:00,48.4,45.9,29.92,NW,323,0.0,0.0,91,0.00,,---,0.35,VWS V14.00,2013-02-12 16:39:00,
2013-02-12 10:49:00,48.6,46.1,29.92,NW,321,0.0,0.0,91,0.00,,---,0.35,VWS V14.00,2013-02-12 16:49:00,
2013-02-12 10:59:00,48.7,46.2,29.92,NW,322,0.0,0.0,91,0.00,,---,0.35,VWS V14.00,2013-02-12 16:59:00,
2013-02-12 11:09:00,48.7,46.2,29.92,NW,324,0.0,0.0,91,0.00,,---,0.35,VWS V14.00,2013-02-12 17:09:00,
2013-02-12 11:19:00,48.9,46.7,29.92,NW,322,0.0,0.0,92,0.00,,---,0.35,VWS V14.00,2013-02-12 17:19:00,
2013-02-12 11:29:00,49.3,47.1,29.92,NW,321,0.0,0.0,92,0.00,,---,0.35,VWS V14.00,2013-02-12 17:29:00,
2013-02-12 11:39:00,48.9,46.7,29.92,NW,320,0.0,0.0,92,0.00,,---,0.35,VWS V14.00,2013-02-12 17:39:00,
2013-02-12 11:49:00,48.7,46.5,29.92,NW,324,0.0,0.0,92,0.00,,---,0.35,VWS V14.00,2013-02-12 17:49:00,
2013-02-12 11:59:00,48.7,46.5,29.92,NW,321,0.0,0.0,92,0.00,,---,0.35,VWS V14.00,2013-02-12 17:59:00,
2013-02-12 12:09:00,49.1,46.9,29.89,NW,324,0.0,0.0,92,0.00,,---,0.35,VWS V14.00,2013-02-12 18:09:00,
2013-02-12 12:19:00,49.3,47.1,29.89,NW,321,0.0,0.0,92,0.00,,---,0.35,VWS V14.00,2013-02-12 18:19:00,
2013-02-12 12:29:00,49.3,47.1,29.89,NW,323,0.0,0.0,92,0.00,,---,0.35,VWS V14.00,2013-02-12 18:29:00,
2013-02-12 12:39:00,49.6,47.7,29.89,NW,322,0.0,0.0,93,0.00,,---,0.35,VWS V14.00,2013-02-12 18:39:00,
2013-02-12 12:49:00,49.5,47.2,29.89,NW,323,0.0,0.0,92,0.00,,---,0.35,VWS V14.00,2013-02-12 18:49:00,
2013-02-12 12:59:00,49.3,47.1,29.89,NW,322,0.0,0.0,92,0.00,,---,0.35,VWS V14.00,2013-02-12 18:59:00,
2013-02-12 13:09:00,49.1,46.9,29.86,NW,321,0.0,0.0,92,0.00,,---,0.35,VWS V14.00,2013-02-12 19:09:00,
2013-02-12 13:19:00,48.9,47.0,29.86,NW,321,0.0,0.0,93,0.00,,---,0.35,VWS V14.00,2013-02-12 19:19:00,
2013-02-12 13:29:00,48.9,47.0,29.86,NW,319,0.0,0.0,93,0.00,,---,0.35,VWS V14.00,2013-02-12 19:29:00,
2013-02-12 13:39:00,48.7,46.8,29.86,NNW,328,0.0,0.0,93,0.00,,---,0.35,VWS V14.00,2013-02-12 19:39:00,
2013-02-12 13:49:00,49.1,47.2,29.86,NW,324,0.0,0.0,93,0.00,,---,0.35,VWS V14.00,2013-02-12 19:49:00,
2013-02-12 13:59:00,49.6,47.7,29.86,NW,323,0.0,0.0,93,0.00,,---,0.35,VWS V14.00,2013-02-12 19:59:00,
2013-02-12 14:09:00,49.6,47.7,29.86,NNW,327,0.0,0.0,93,0.00,,---,0.35,VWS V14.00,2013-02-12 20:09:00,
2013-02-12 14:19:00,49.6,47.7,29.83,NNW,330,0.0,0.0,93,0.00,,---,0.35,VWS V14.00,2013-02-12 20:19:00,
2013-02-12 14:29:00,49.5,47.5,29.83,NW,325,0.0,0.0,93,0.00,,---,0.35,VWS V14.00,2013-02-12 20:29:00,
2013-02-12 14:39:00,49.3,47.3,29.83,NW,322,0.0,0.0,93,0.00,,---,0.35,VWS V14.00,2013-02-12 20:39:00,
2013-02-12 14:49:00,49.5,47.5,29.86,NNW,327,0.0,0.0,93,0.00,,---,0.35,VWS V14.00,2013-02-12 20:49:00,
2013-02-12 14:59:00,49.5,47.5,29.86,NNW,327,0.0,0.0,93,0.00,,---,0.35,VWS V14.00,2013-02-12 20:59:00,
2013-02-12 15:09:00,49.5,47.5,29.83,NNW,329,0.0,2.7,93,0.00,,---,0.35,VWS V14.00,2013-02-12 21:09:00,
2013-02-12 15:19:00,49.1,47.2,29.86,NNW,336,0.0,0.0,93,0.00,,---,0.35,VWS V14.00,2013-02-12 21:19:00,
2013-02-12 15:29:00,48.7,46.8,29.86,NW,324,0.0,4.9,93,0.00,,---,0.35,VWS V14.00,2013-02-12 21:29:00,
2013-02-12 15:39:00,48.7,47.1,29.86,NW,312,0.0,3.6,94,0.00,,---,0.35,VWS V14.00,2013-02-12 21:39:00,
2013-02-12 15:49:00,48.6,46.6,29.86,NNE,16,2.7,8.3,93,0.00,,---,0.35,VWS V14.00,2013-02-12 21:49:00,
2013-02-12 15:59:00,48.6,46.9,29.86,NNW,331,0.0,4.0,94,0.00,,---,0.35,VWS V14.00,2013-02-12 21:59:00,
2013-02-12 16:09:00,48.7,47.1,29.86,NW,319,0.0,3.6,94,0.00,,---,0.35,VWS V14.00,2013-02-12 22:09:00,
2013-02-12 16:19:00,49.1,47.2,29.86,NNW,330,0.0,0.0,93,0.00,,---,0.35,VWS V14.00,2013-02-12 22:19:00,
2013-02-12 16:29:00,49.3,47.3,29.86,NNW,339,0.0,4.0,93,0.00,,---,0.35,VWS V14.00,2013-02-12 22:29:00,
2013-02-12 16:39:00,49.5,47.5,29.86,NW,322,0.0,0.0,93,0.00,,---,0.35,VWS V14.00,2013-02-12 22:39:00,
2013-02-12 16:49:00,49.3,47.3,29.86,WNW,299,0.0,5.4,93,0.00,,---,0.35,VWS V14.00,2013-02-12 22:49:00,
2013-02-12 16:59:00,49.3,47.3,29.86,NW,307,0.0,6.7,93,0.00,,---,0.35,VWS V14.00,2013-02-12 22:59:00,
2013-02-12 17:09:00,49.1,47.2,29.86,NNW,336,0.0,6.7,93,0.00,,---,0.35,VWS V14.00,2013-02-12 23:09:00,
2013-02-12 17:19:00,49.1,46.9,29.86,NNW,336,0.0,4.9,92,0.00,,---,0.35,VWS V14.00,2013-02-12 23:19:00,
2013-02-12 17:29:00,49.1,46.9,29.86,NW,326,0.0,0.0,92,0.00,,---,0.35,VWS V14.00,2013-02-12 23:29:00,
2013-02-12 17:39:00,48.9,46.7,29.86,NNW,333,0.0,3.1,92,0.00,,---,0.35,VWS V14.00,2013-02-12 23:39:00,
2013-02-12 17:49:00,48.7,46.5,29.89,NW,318,0.0,0.0,92,0.00,,---,0.35,VWS V14.00,2013-02-12 23:49:00,
2013-02-12 17:59:00,48.7,46.5,29.89,NNW,336,0.0,0.0,92,0.00,,---,0.35,VWS V14.00,2013-02-12 23:59:00,
2013-02-12 18:09:00,48.6,46.3,29.89,NNW,331,0.0,0.0,92,0.00,,---,0.35,VWS V14.00,2013-02-13 00:09:00,
2013-02-12 18:19:00,48.4,45.9,29.89,NNW,335,0.0,0.0,91,0.00,,---,0.35,VWS V14.00,2013-02-13 00:19:00,
2013-02-12 18:29:00,48.4,45.9,29.89,NNE,12,0.0,0.0,91,0.00,,---,0.35,VWS V14.00,2013-02-13 00:29:00,
2013-02-12 18:39:00,48.2,45.7,29.89,NNW,333,0.0,0.0,91,0.00,,---,0.35,VWS V14.00,2013-02-13 00:39:00,
2013-02-12 18:49:00,48.2,45.7,29.89,NW,306,0.0,3.1,91,0.00,,---,0.35,VWS V14.00,2013-02-13 00:49:00,
2013-02-12 18:59:00,48.0,45.5,29.89,NW,320,0.0,0.0,91,0.00,,---,0.35,VWS V14.00,2013-02-13 00:59:00,
2013-02-12 19:09:00,47.8,45.3,29.92,NNW,343,0.0,3.6,91,0.00,,---,0.35,VWS V14.00,2013-02-13 01:09:00,
2013-02-12 19:19:00,47.3,44.5,29.92,North,356,0.0,0.0,90,0.00,,---,0.35,VWS V14.00,2013-02-13 01:19:00,
2013-02-12 19:29:00,47.1,44.6,29.92,NNW,338,0.0,0.0,91,0.00,,---,0.35,VWS V14.00,2013-02-13 01:29:00,
2013-02-12 19:39:00,47.1,44.6,29.92,NNW,347,0.0,0.0,91,0.00,,---,0.35,VWS V14.00,2013-02-13 01:39:00,
2013-02-12 19:49:00,47.3,44.8,29.92,NNE,29,0.0,0.0,91,0.00,,---,0.35,VWS V14.00,2013-02-13 01:49:00,
2013-02-12 19:59:00,47.1,44.6,29.92,NW,324,0.0,0.0,91,0.00,,---,0.35,VWS V14.00,2013-02-13 01:59:00,
2013-02-12 20:09:00,46.8,44.3,29.95,NNW,334,0.0,0.0,91,0.00,,---,0.35,VWS V14.00,2013-02-13 02:09:00,
2013-02-12 20:19:00,46.8,44.3,29.95,North,351,0.0,0.0,91,0.00,,---,0.35,VWS V14.00,2013-02-13 02:19:00,
2013-02-12 20:29:00,47.1,44.6,29.95,NNW,344,0.0,0.0,91,0.00,,---,0.35,VWS V14.00,2013-02-13 02:29:00,
2013-02-12 20:39:00,47.3,44.8,29.95,NNW,333,0.0,0.0,91,0.00,,---,0.35,VWS V14.00,2013-02-13 02:39:00,
2013-02-12 20:49:00,47.3,44.8,29.95,NW,319,0.0,4.5,91,0.00,,---,0.35,VWS V14.00,2013-02-13 02:49:00,
2013-02-12 20:59:00,47.3,44.8,29.95,NNW,330,0.0,5.4,91,0.00,,---,0.35,VWS V14.00,2013-02-13 02:59:00,
2013-02-12 21:09:00,47.5,45.0,29.95,NNW,340,0.0,0.0,91,0.00,,---,0.35,VWS V14.00,2013-02-13 03:09:00,
2013-02-12 21:19:00,46.9,44.2,29.98,NNW,334,0.0,8.3,90,0.00,,---,0.35,VWS V14.00,2013-02-13 03:19:00,
2013-02-12 21:29:00,46.0,43.0,29.98,NW,325,0.0,10.5,89,0.00,,---,0.35,VWS V14.00,2013-02-13 03:29:00,
2013-02-12 21:39:00,45.3,42.3,29.98,NNW,342,0.0,12.5,89,0.00,,---,0.35,VWS V14.00,2013-02-13 03:39:00,
2013-02-12 21:49:00,44.8,41.7,29.98,NNW,339,3.1,12.5,89,0.00,,---,0.35,VWS V14.00,2013-02-13 03:49:00,
2013-02-12 21:59:00,44.4,41.4,29.98,NW,311,0.0,10.5,89,0.00,,---,0.35,VWS V14.00,2013-02-13 03:59:00,
2013-02-12 22:09:00,44.2,41.2,29.98,NNW,334,5.4,9.2,89,0.00,,---,0.35,VWS V14.00,2013-02-13 04:09:00,
2013-02-12 22:19:00,43.9,40.8,29.98,NNW,334,8.7,10.5,89,0.00,,---,0.35,VWS V14.00,2013-02-13 04:19:00,
2013-02-12 22:29:00,43.7,40.7,29.98,NNW,339,0.0,11.0,89,0.00,,---,0.35,VWS V14.00,2013-02-13 04:29:00,
2013-02-12 22:39:00,43.3,40.0,30.01,NNW,334,4.9,11.0,88,0.00,,---,0.35,VWS V14.00,2013-02-13 04:39:00,
2013-02-12 22:49:00,43.0,39.7,30.01,North,351,6.9,8.7,88,0.00,,---,0.35,VWS V14.00,2013-02-13 04:49:00,
2013-02-12 22:59:00,42.6,39.3,30.01,NW,319,0.0,8.7,88,0.00,,---,0.35,VWS V14.00,2013-02-13 04:59:00,
2013-02-12 23:09:00,42.6,39.3,30.01,NNW,328,0.0,7.8,88,0.00,,---,0.35,VWS V14.00,2013-02-13 05:09:00,
2013-02-12 23:19:00,42.4,39.1,30.01,NNW,331,4.5,8.3,88,0.00,,---,0.35,VWS V14.00,2013-02-13 05:19:00,
2013-02-12 23:29:00,42.1,38.5,30.01,NNW,344,4.9,13.9,87,0.00,,---,0.35,VWS V14.00,2013-02-13 05:29:00,
2013-02-12 23:39:00,41.7,38.1,30.04,NNW,334,0.0,8.3,87,0.00,,---,0.35,VWS V14.00,2013-02-13 05:39:00,
2013-02-12 23:49:00,41.5,38.0,30.04,NW,324,2.7,11.2,87,0.00,,---,0.35,VWS V14.00,2013-02-13 05:49:00,
2013-02-12 23:59:00,41.5,38.0,30.04,NNW,341,3.6,10.1,87,0.00,,---,0.00,VWS V14.00,2013-02-13 05:59:00,